createdAt,value
2018-06-16T00:01:49.606Z,21.77
2018-06-16T00:04:17.889Z,21.93
2018-06-16T00:06:46.794Z,21.40
2018-06-16T00:09:15.160Z,21.95
2018-06-16T00:11:43.488Z,23.20
2018-06-16T00:14:11.808Z,22.85
2018-06-16T00:16:40.194Z,21.75
2018-06-16T00:19:08.614Z,22.52
2018-06-16T00:21:37.009Z,22.62
2018-06-16T00:24:05.429Z,21.70
2018-06-16T00:26:33.794Z,22.42
2018-06-16T00:29:02.671Z,22.37
2018-06-16T00:31:30.956Z,21.93
2018-06-16T00:33:59.282Z,22.20
2018-06-16T00:36:27.664Z,20.15
2018-06-16T00:38:56.003Z,21.65
2018-06-16T00:41:24.357Z,21.20
2018-06-16T00:43:53.008Z,20.70
2018-06-16T00:46:21.510Z,21.17
2018-06-16T00:48:49.844Z,20.60
2018-06-16T00:51:18.162Z,21.40
2018-06-16T00:53:46.463Z,21.65
2018-06-16T00:56:14.884Z,21.23
2018-06-16T00:58:43.207Z,20.92
2018-06-16T01:01:11.552Z,20.12
2018-06-16T01:03:39.966Z,19.65
2018-06-16T01:06:08.457Z,20.90
2018-06-16T01:08:36.814Z,21.42
2018-06-16T01:11:05.134Z,23.22
2018-06-16T01:13:33.481Z,22.93
2018-06-16T01:16:01.813Z,21.25
2018-06-16T01:18:30.186Z,22.30
2018-06-16T01:20:58.676Z,21.77
2018-06-16T01:23:27.030Z,22.60
2018-06-16T01:25:55.349Z,21.80
2018-06-16T01:28:23.646Z,21.30
2018-06-16T01:30:51.970Z,20.70
2018-06-16T01:33:20.277Z,22.40
2018-06-16T01:35:48.688Z,23.30
2018-06-16T01:38:17.051Z,22.45
2018-06-16T01:40:46.032Z,23.38
2018-06-16T01:43:14.479Z,21.55
2018-06-16T01:45:42.877Z,20.62
2018-06-16T01:48:11.171Z,22.98
2018-06-16T01:50:39.675Z,23.35
2018-06-16T01:53:07.964Z,21.87
2018-06-16T01:55:36.283Z,22.35
2018-06-16T01:58:04.619Z,21.65
2018-06-16T02:00:32.954Z,21.55
2018-06-16T02:03:01.275Z,22.20
2018-06-16T02:05:29.697Z,23.57
2018-06-16T02:07:58.013Z,24.18
2018-06-16T02:10:26.320Z,24.02
2018-06-16T02:12:54.348Z,24.25
2018-06-16T02:15:22.672Z,24.25
2018-06-16T02:17:51.083Z,23.45
2018-06-16T02:20:19.418Z,24.18
2018-06-16T02:22:47.721Z,24.07
2018-06-16T02:25:16.070Z,23.50
2018-06-16T02:27:44.483Z,24.45
2018-06-16T02:30:12.882Z,23.83
2018-06-16T02:32:41.213Z,24.37
2018-06-16T02:35:09.560Z,22.60
2018-06-16T02:37:37.912Z,24.55
2018-06-16T02:40:06.194Z,24.40
2018-06-16T02:42:34.509Z,23.60
2018-06-16T02:45:02.826Z,23.75
2018-06-16T02:47:31.225Z,23.52
2018-06-16T02:49:59.580Z,25.23
2018-06-16T02:52:27.965Z,23.20
2018-06-16T02:54:56.406Z,25.10
2018-06-16T02:57:24.797Z,23.02
2018-06-16T02:59:53.140Z,21.80
2018-06-16T03:02:21.528Z,23.27
2018-06-16T03:04:49.971Z,22.00
2018-06-16T03:07:18.405Z,23.25
2018-06-16T03:09:46.811Z,22.37
2018-06-16T03:12:15.356Z,24.50
2018-06-16T03:14:43.754Z,24.95
2018-06-16T03:17:12.057Z,23.98
2018-06-16T03:19:40.425Z,23.92
2018-06-16T03:22:08.837Z,23.65
2018-06-16T03:24:37.143Z,23.27
2018-06-16T03:27:05.512Z,25.02
2018-06-16T03:29:33.882Z,23.95
2018-06-16T03:32:02.223Z,25.08
2018-06-16T03:34:30.795Z,26.23
2018-06-16T03:36:59.489Z,24.67
2018-06-16T03:39:27.828Z,25.55
2018-06-16T03:41:56.185Z,24.40
2018-06-16T03:44:24.472Z,25.52
2018-06-16T03:46:52.808Z,24.63
2018-06-16T03:49:21.195Z,23.60
2018-06-16T03:51:49.475Z,22.65
2018-06-16T03:54:17.901Z,21.45
2018-06-16T03:56:46.014Z,20.77
2018-06-16T03:59:14.353Z,20.32
2018-06-16T04:01:42.706Z,18.20
2018-06-16T04:04:10.996Z,19.17
2018-06-16T04:06:39.402Z,18.42
2018-06-16T04:09:09.258Z,17.65
2018-06-16T04:11:37.871Z,18.52
2018-06-16T04:14:06.264Z,19.85
2018-06-16T04:16:34.632Z,18.90
2018-06-16T04:19:02.934Z,19.98
2018-06-16T04:21:31.397Z,21.42
2018-06-16T04:24:00.069Z,22.00
2018-06-16T04:26:28.355Z,20.27
2018-06-16T04:28:57.098Z,18.67
2018-06-16T04:31:25.469Z,19.80
2018-06-16T04:33:53.776Z,18.62
2018-06-16T04:36:22.134Z,19.42
2018-06-16T04:38:50.420Z,19.27
2018-06-16T04:41:18.715Z,18.48
2018-06-16T04:43:47.045Z,19.15
2018-06-16T04:46:15.396Z,17.82
2018-06-16T04:48:43.722Z,18.60
2018-06-16T04:51:12.130Z,17.40
2018-06-16T04:53:40.460Z,16.75
2018-06-16T04:56:08.740Z,17.75
2018-06-16T04:58:37.112Z,16.17
2018-06-16T05:01:05.475Z,16.12
2018-06-16T05:03:34.260Z,14.25
2018-06-16T05:06:02.604Z,14.43
2018-06-16T05:08:30.928Z,13.85
2018-06-16T05:10:59.248Z,13.65
2018-06-16T05:13:27.521Z,12.65
2018-06-16T05:15:55.833Z,12.30
2018-06-16T05:18:24.076Z,12.45
2018-06-16T05:20:52.434Z,12.90
2018-06-16T05:23:20.825Z,11.57
2018-06-16T05:25:49.897Z,11.55
2018-06-16T05:28:18.133Z,12.10
2018-06-16T05:30:46.469Z,10.28
2018-06-16T05:33:14.791Z,12.15
2018-06-16T05:35:43.072Z,10.40
2018-06-16T05:38:11.415Z,10.20
2018-06-16T05:40:39.716Z,10.10
2018-06-16T05:43:08.021Z,9.73
2018-06-16T05:45:36.321Z,9.85
2018-06-16T05:48:04.638Z,10.38
2018-06-16T05:50:32.955Z,9.73
2018-06-16T05:53:01.274Z,9.90
2018-06-16T05:55:29.583Z,9.28
2018-06-16T05:57:57.890Z,9.60
2018-06-16T06:00:27.173Z,8.95
2018-06-16T06:02:55.480Z,9.75
2018-06-16T06:05:23.788Z,10.10
2018-06-16T06:07:52.084Z,9.00
2018-06-16T06:10:20.419Z,9.80
2018-06-16T06:12:48.708Z,10.20
2018-06-16T06:15:16.981Z,9.85
2018-06-16T06:17:45.333Z,9.15
2018-06-16T06:20:13.663Z,8.83
2018-06-16T06:22:41.965Z,8.50
2018-06-16T06:25:10.278Z,8.43
2018-06-16T06:27:38.618Z,8.75
2018-06-16T06:30:06.929Z,8.85
2018-06-16T06:32:35.235Z,9.25
2018-06-16T06:35:03.535Z,7.92
2018-06-16T06:37:31.919Z,8.53
2018-06-16T06:40:00.250Z,8.53
2018-06-16T06:42:28.583Z,7.67
2018-06-16T06:44:56.947Z,8.28
2018-06-16T06:47:25.270Z,7.85
2018-06-16T06:49:53.627Z,7.55
2018-06-16T06:52:22.025Z,7.53
2018-06-16T06:54:50.356Z,8.45
2018-06-16T06:57:18.652Z,7.85
2018-06-16T06:59:46.928Z,6.58
2018-06-16T07:02:15.199Z,6.75
2018-06-16T07:04:43.502Z,7.15
2018-06-16T07:07:11.821Z,6.87
2018-06-16T07:09:40.114Z,6.50
2018-06-16T07:12:08.605Z,6.53
2018-06-16T07:14:37.092Z,6.30
2018-06-16T07:17:05.494Z,6.30
2018-06-16T07:19:33.782Z,6.15
2018-06-16T07:22:02.097Z,5.58
2018-06-16T07:24:30.459Z,5.83
2018-06-16T07:26:58.725Z,5.00
2018-06-16T07:29:27.012Z,5.60
2018-06-16T07:31:55.296Z,6.33
2018-06-16T07:34:23.577Z,5.50
2018-06-16T07:36:51.869Z,5.62
2018-06-16T07:39:19.886Z,5.72
2018-06-16T07:41:48.325Z,5.58
2018-06-16T07:44:16.348Z,5.30
2018-06-16T07:46:44.732Z,4.55
2018-06-16T07:49:13.125Z,5.10
2018-06-16T07:51:41.422Z,6.25
2018-06-16T07:54:09.777Z,4.53
2018-06-16T07:56:38.139Z,5.28
2018-06-16T07:59:06.530Z,4.85
2018-06-16T08:01:34.876Z,5.40
2018-06-16T08:04:03.232Z,5.55
2018-06-16T08:06:32.179Z,5.70
2018-06-16T08:09:00.532Z,4.45
2018-06-16T08:11:28.816Z,5.45
2018-06-16T08:13:57.214Z,5.40
2018-06-16T08:16:25.600Z,5.45
2018-06-16T08:18:53.932Z,4.95
2018-06-16T08:21:22.316Z,5.40
2018-06-16T08:23:50.635Z,5.42
2018-06-16T08:26:18.913Z,5.17
2018-06-16T08:28:47.286Z,5.47
2018-06-16T08:31:15.734Z,5.58
2018-06-16T08:33:44.074Z,5.00
2018-06-16T08:36:12.364Z,5.35
2018-06-16T08:38:40.728Z,4.65
2018-06-16T08:41:09.039Z,5.12
2018-06-16T08:43:37.391Z,4.67
2018-06-16T08:46:05.758Z,5.28
2018-06-16T08:48:34.058Z,4.65
2018-06-16T08:51:02.354Z,4.90
2018-06-16T08:53:30.675Z,4.53
2018-06-16T08:55:58.731Z,5.47
2018-06-16T08:58:27.064Z,5.75
2018-06-16T09:00:55.469Z,4.15
2018-06-16T09:03:23.828Z,4.62
2018-06-16T09:05:52.126Z,5.00
2018-06-16T09:08:20.466Z,4.78
2018-06-16T09:10:48.821Z,6.12
2018-06-16T09:13:17.084Z,6.90
2018-06-16T09:15:45.412Z,6.50
2018-06-16T09:18:13.725Z,5.90
2018-06-16T09:20:42.131Z,6.72
2018-06-16T09:23:10.435Z,5.58
2018-06-16T09:25:38.712Z,5.83
2018-06-16T09:28:07.100Z,5.92
2018-06-16T09:30:35.375Z,5.58
2018-06-16T09:33:03.938Z,7.03
2018-06-16T09:35:32.243Z,6.92
2018-06-16T09:38:01.509Z,7.17
2018-06-16T09:40:29.828Z,7.03
2018-06-16T09:42:58.464Z,7.60
2018-06-16T09:45:26.799Z,8.08
2018-06-16T09:47:55.144Z,8.90
2018-06-16T09:50:23.400Z,8.85
2018-06-16T09:52:51.847Z,7.67
2018-06-16T09:55:20.108Z,7.75
2018-06-16T09:57:48.528Z,8.35
2018-06-16T10:00:22.308Z,10.15
2018-06-16T10:02:50.655Z,7.53
2018-06-16T10:05:19.015Z,8.38
2018-06-16T10:07:47.330Z,8.68
2018-06-16T10:10:16.087Z,9.25
2018-06-16T10:12:44.640Z,9.55
2018-06-16T10:15:13.041Z,9.30
2018-06-16T10:17:41.434Z,9.43
2018-06-16T10:20:09.789Z,9.38
2018-06-16T10:22:38.160Z,7.15
2018-06-16T10:25:06.662Z,6.55
2018-06-16T10:27:35.103Z,5.22
2018-06-16T10:30:03.131Z,5.28
2018-06-16T10:32:31.409Z,5.42
2018-06-16T10:34:59.727Z,6.05
2018-06-16T10:37:27.782Z,6.60
2018-06-16T10:39:56.085Z,7.65
2018-06-16T10:42:24.436Z,5.87
2018-06-16T10:44:52.727Z,5.15
2018-06-16T10:47:21.066Z,5.20
2018-06-16T10:49:49.404Z,5.80
2018-06-16T10:52:17.741Z,5.60
2018-06-16T10:54:46.136Z,4.40
2018-06-16T10:57:14.685Z,3.83
2018-06-16T10:59:44.038Z,3.90
2018-06-16T11:02:12.390Z,4.22
2018-06-16T11:04:40.743Z,4.35
2018-06-16T11:07:09.010Z,4.87
2018-06-16T11:09:37.372Z,4.22
2018-06-16T11:12:05.714Z,4.90
2018-06-16T11:14:34.025Z,4.33
2018-06-16T11:17:02.291Z,4.28
2018-06-16T11:19:30.666Z,5.62
2018-06-16T11:21:58.975Z,5.92
2018-06-16T11:24:27.258Z,5.33
2018-06-16T11:26:55.595Z,4.87
2018-06-16T11:29:23.949Z,4.78
2018-06-16T11:31:52.289Z,4.65
2018-06-16T11:34:20.679Z,4.62
2018-06-16T11:36:49.176Z,4.97
2018-06-16T11:39:17.497Z,4.60
2018-06-16T11:41:45.852Z,3.77
2018-06-16T11:44:14.167Z,4.28
2018-06-16T11:46:42.507Z,3.25
2018-06-16T11:49:10.824Z,4.37
2018-06-16T11:51:39.145Z,4.33
2018-06-16T11:54:07.434Z,5.03
2018-06-16T11:56:35.799Z,4.72
2018-06-16T11:59:04.159Z,3.77
2018-06-16T12:01:32.435Z,3.30
2018-06-16T12:04:00.726Z,3.42
2018-06-16T12:06:28.749Z,3.37
2018-06-16T12:08:57.131Z,4.08
2018-06-16T12:11:25.541Z,4.92
2018-06-16T12:13:53.901Z,4.75
2018-06-16T12:16:22.189Z,4.45
2018-06-16T12:18:50.578Z,4.05
2018-06-16T12:21:19.101Z,3.65
2018-06-16T12:23:47.395Z,3.70
2018-06-16T12:26:15.732Z,3.90
2018-06-16T12:28:44.019Z,3.77
2018-06-16T12:31:12.309Z,3.87
2018-06-16T12:33:40.689Z,4.47
2018-06-16T12:36:08.978Z,3.85
2018-06-16T12:38:37.322Z,3.98
2018-06-16T12:41:05.699Z,4.72
2018-06-16T12:43:34.106Z,4.03
2018-06-16T12:46:02.586Z,4.03
2018-06-16T12:48:31.031Z,4.17
2018-06-16T12:50:59.382Z,4.42
2018-06-16T12:53:27.764Z,4.08
2018-06-16T12:55:56.077Z,3.70
2018-06-16T12:58:24.381Z,4.08
2018-06-16T13:00:52.961Z,4.33
2018-06-16T13:03:21.253Z,3.37
2018-06-16T13:05:49.533Z,3.37
2018-06-16T13:08:17.868Z,3.62
2018-06-16T13:10:46.223Z,4.00
2018-06-16T13:13:14.595Z,3.50
2018-06-16T13:15:42.993Z,3.58
2018-06-16T13:18:11.328Z,3.87
2018-06-16T13:20:39.719Z,4.67
2018-06-16T13:23:08.055Z,3.87
2018-06-16T13:25:36.373Z,3.80
2018-06-16T13:28:04.947Z,3.35
2018-06-16T13:30:33.340Z,3.92
2018-06-16T13:33:01.751Z,3.72
2018-06-16T13:35:30.030Z,3.47
2018-06-16T13:37:58.320Z,3.87
2018-06-16T13:40:26.659Z,3.25
2018-06-16T13:42:54.979Z,3.85
2018-06-16T13:45:23.278Z,3.80
2018-06-16T13:47:51.607Z,3.50
2018-06-16T13:50:19.922Z,3.20
2018-06-16T13:52:48.261Z,3.60
2018-06-16T13:55:16.558Z,3.37
2018-06-16T13:57:44.935Z,3.80
2018-06-16T14:00:13.301Z,3.42
2018-06-16T14:02:41.623Z,3.77
2018-06-16T14:05:09.981Z,3.02
2018-06-16T14:07:38.289Z,3.30
2018-06-16T14:10:06.588Z,2.80
2018-06-16T14:12:34.911Z,3.37
2018-06-16T14:15:03.283Z,3.22
2018-06-16T14:17:31.584Z,3.00
2018-06-16T14:19:59.903Z,3.00
2018-06-16T14:22:28.230Z,3.45
2018-06-16T14:24:56.576Z,3.12
2018-06-16T14:27:24.871Z,3.60
2018-06-16T14:29:53.233Z,3.67
2018-06-16T14:32:21.618Z,3.87
2018-06-16T14:34:49.947Z,3.50
2018-06-16T14:37:18.244Z,3.52
2018-06-16T14:39:46.548Z,3.65
2018-06-16T14:42:14.803Z,3.45
2018-06-16T14:44:43.170Z,3.77
2018-06-16T14:47:11.558Z,3.02
2018-06-16T14:49:39.835Z,3.00
2018-06-16T14:52:08.110Z,3.27
2018-06-16T14:54:36.464Z,3.33
2018-06-16T14:57:04.743Z,2.92
2018-06-16T14:59:33.093Z,3.25
2018-06-16T15:02:01.424Z,3.12
2018-06-16T15:04:29.709Z,2.52
2018-06-16T15:06:58.001Z,2.37
2018-06-16T15:09:26.428Z,2.27
2018-06-16T15:11:54.957Z,3.40
2018-06-16T15:14:23.290Z,3.08
2018-06-16T15:16:51.571Z,3.10
2018-06-16T15:19:19.832Z,2.52
2018-06-16T15:21:48.113Z,3.30
2018-06-16T15:24:16.421Z,2.47
2018-06-16T15:26:44.755Z,2.62
2018-06-16T15:29:13.054Z,2.87
2018-06-16T15:31:41.382Z,3.10
2018-06-16T15:34:09.715Z,3.47
2018-06-16T15:36:38.009Z,2.60
2018-06-16T15:39:07.903Z,2.60
2018-06-16T15:41:36.216Z,2.70
2018-06-16T15:44:04.520Z,2.60
2018-06-16T15:46:33.019Z,2.75
2018-06-16T15:49:01.003Z,2.40
2018-06-16T15:51:29.404Z,2.67
2018-06-16T15:53:57.712Z,2.87
2018-06-16T15:56:26.152Z,2.40
2018-06-16T15:58:54.783Z,2.12
2018-06-16T16:01:23.169Z,2.02
2018-06-16T16:03:51.593Z,2.40
2018-06-16T16:06:19.876Z,2.60
2018-06-16T16:08:48.167Z,2.58
2018-06-16T16:11:16.469Z,2.85
2018-06-16T16:13:44.839Z,1.98
2018-06-16T16:16:13.211Z,2.75
2018-06-16T16:18:41.537Z,2.70
2018-06-16T16:21:09.951Z,3.10
2018-06-16T16:26:04.933Z,2.45
2018-06-16T16:28:33.235Z,2.60
2018-06-16T16:31:01.587Z,2.87
2018-06-16T16:33:30.840Z,2.67
2018-06-16T16:35:59.349Z,2.10
2018-06-16T16:38:27.731Z,2.72
2018-06-16T16:40:56.044Z,2.58
2018-06-16T16:43:24.366Z,3.12
2018-06-16T16:45:52.629Z,2.72
2018-06-16T16:48:20.885Z,2.87
2018-06-16T16:50:49.125Z,2.17
2018-06-16T16:53:17.405Z,2.77
2018-06-16T16:55:45.738Z,3.22
2018-06-16T16:58:13.991Z,3.33
2018-06-16T17:00:42.317Z,3.40
2018-06-16T17:03:10.650Z,2.95
2018-06-16T17:05:38.938Z,2.65
2018-06-16T17:08:07.254Z,2.77
2018-06-16T17:10:35.800Z,3.27
2018-06-16T17:13:04.140Z,3.67
2018-06-16T17:15:32.503Z,3.00
2018-06-16T17:18:00.956Z,3.00
2018-06-16T17:20:29.244Z,3.20
2018-06-16T17:22:57.663Z,6.03
2018-06-16T17:25:25.969Z,4.28
2018-06-16T17:27:54.380Z,6.08
2018-06-16T17:30:22.782Z,3.22
2018-06-16T17:32:51.079Z,4.80
2018-06-16T17:35:19.333Z,4.22
2018-06-16T17:37:47.793Z,4.45
2018-06-16T17:40:16.068Z,4.03
2018-06-16T17:42:44.361Z,4.37
2018-06-16T17:45:12.707Z,4.08
2018-06-16T17:47:41.142Z,3.85
2018-06-16T17:50:09.555Z,3.98
2018-06-16T17:52:37.856Z,3.62
2018-06-16T17:55:06.186Z,3.27
2018-06-16T17:57:34.494Z,3.72
2018-06-16T18:00:02.952Z,3.47
2018-06-16T18:02:31.244Z,4.12
2018-06-16T18:04:59.538Z,3.50
2018-06-16T18:07:27.906Z,3.87
2018-06-16T18:09:56.219Z,4.17
2018-06-16T18:12:24.454Z,3.83
2018-06-16T18:14:52.826Z,4.25
2018-06-16T18:17:21.151Z,3.75
2018-06-16T18:19:49.464Z,5.05
2018-06-16T18:22:17.800Z,5.20
2018-06-16T18:24:46.186Z,4.67
2018-06-16T18:27:14.582Z,4.83
2018-06-16T18:29:47.094Z,4.87
2018-06-16T18:32:15.396Z,4.60
2018-06-16T18:34:43.693Z,4.90
2018-06-16T18:37:12.042Z,5.15
2018-06-16T18:39:40.333Z,4.53
2018-06-16T18:42:08.871Z,5.45
2018-06-16T18:44:37.271Z,5.92
2018-06-16T18:47:05.787Z,6.67
2018-06-16T18:49:34.115Z,6.30
2018-06-16T18:52:02.468Z,5.90
2018-06-16T18:54:30.800Z,5.70
2018-06-16T18:56:59.077Z,6.10
2018-06-16T18:59:27.382Z,5.33
2018-06-16T19:01:55.792Z,5.12
2018-06-16T19:04:24.187Z,5.90
2018-06-16T19:06:52.555Z,5.92
2018-06-16T19:09:20.934Z,5.50
2018-06-16T19:11:49.225Z,5.05
2018-06-16T19:14:17.471Z,6.28
2018-06-16T19:16:46.064Z,5.92
2018-06-16T19:19:14.406Z,6.28
2018-06-16T19:21:42.695Z,6.20
2018-06-16T19:24:10.948Z,5.70
2018-06-16T19:26:39.338Z,5.65
2018-06-16T19:29:07.664Z,6.12
2018-06-16T19:31:36.075Z,6.33
2018-06-16T19:34:04.363Z,5.85
2018-06-16T19:36:32.667Z,6.33
2018-06-16T19:39:00.983Z,6.47
2018-06-16T19:41:29.306Z,6.70
2018-06-16T19:43:57.780Z,5.75
2018-06-16T19:46:26.123Z,5.53
2018-06-16T19:48:54.411Z,5.40
2018-06-16T19:51:22.714Z,5.12
2018-06-16T19:53:51.047Z,4.92
2018-06-16T19:56:19.366Z,4.50
2018-06-16T19:58:47.641Z,5.00
2018-06-16T20:01:15.976Z,5.20
2018-06-16T20:03:44.322Z,4.97
2018-06-16T20:06:12.692Z,5.25
2018-06-16T20:08:40.996Z,5.30
2018-06-16T20:11:09.426Z,5.83
2018-06-16T20:13:37.716Z,5.40
2018-06-16T20:16:06.254Z,4.87
2018-06-16T20:18:34.615Z,5.12
2018-06-16T20:21:02.956Z,5.67
2018-06-16T20:23:31.286Z,4.70
2018-06-16T20:25:59.565Z,5.10
2018-06-16T20:28:27.867Z,5.37
2018-06-16T20:30:56.322Z,5.25
2018-06-16T20:33:24.577Z,5.55
2018-06-16T20:35:53.058Z,5.15
2018-06-16T20:38:21.367Z,4.78
2018-06-16T20:40:49.737Z,6.10
2018-06-16T20:43:18.394Z,4.92
2018-06-16T20:45:46.681Z,5.78
2018-06-16T20:48:15.066Z,5.65
2018-06-16T20:50:43.596Z,5.03
2018-06-16T20:53:12.228Z,5.55
2018-06-16T20:55:40.552Z,6.35
2018-06-16T20:58:08.912Z,5.45
2018-06-16T21:00:37.199Z,5.50
2018-06-16T21:03:05.889Z,5.72
2018-06-16T21:05:33.936Z,6.12
2018-06-16T21:08:02.260Z,6.60
2018-06-16T21:10:30.524Z,5.95
2018-06-16T21:12:58.830Z,5.83
2018-06-16T21:15:27.163Z,6.58
2018-06-16T21:17:55.516Z,7.17
2018-06-16T21:20:23.830Z,5.85
2018-06-16T21:22:52.135Z,6.37
2018-06-16T21:25:20.505Z,6.00
2018-06-16T21:27:48.867Z,6.08
2018-06-16T21:30:17.315Z,6.20
2018-06-16T21:32:45.678Z,6.12
2018-06-16T21:35:14.355Z,5.53
2018-06-16T21:37:42.631Z,6.35
2018-06-16T21:40:11.656Z,6.12
2018-06-16T21:42:39.962Z,6.33
2018-06-16T21:45:08.285Z,7.20
2018-06-16T21:47:36.554Z,7.20
2018-06-16T21:50:04.884Z,7.25
2018-06-16T21:52:33.200Z,7.45
2018-06-16T21:55:01.487Z,7.17
2018-06-16T21:57:29.808Z,7.80
2018-06-16T21:59:58.089Z,7.80
2018-06-16T22:02:26.390Z,8.35
2018-06-16T22:04:54.840Z,9.30
2018-06-16T22:07:23.212Z,9.03
2018-06-16T22:09:51.694Z,8.93
2018-06-16T22:12:20.173Z,9.58
2018-06-16T22:14:48.453Z,8.93
2018-06-16T22:17:16.773Z,8.58
2018-06-16T22:19:45.061Z,9.10
2018-06-16T22:22:13.358Z,8.50
2018-06-16T22:24:41.702Z,9.38
2018-06-16T22:27:10.035Z,9.30
2018-06-16T22:29:38.336Z,9.45
2018-06-16T22:32:06.653Z,8.60
2018-06-16T22:34:34.971Z,9.25
2018-06-16T22:37:03.262Z,9.13
2018-06-16T22:39:31.621Z,9.13
2018-06-16T22:41:59.990Z,9.53
2018-06-16T22:44:28.373Z,8.53
2018-06-16T22:46:56.669Z,8.58
2018-06-16T22:49:24.980Z,9.80
2018-06-16T22:51:53.292Z,9.33
2018-06-16T22:54:21.603Z,9.50
2018-06-16T22:56:49.918Z,10.03
2018-06-16T22:59:18.284Z,10.38
2018-06-16T23:01:46.596Z,8.93
2018-06-16T23:04:14.882Z,10.43
2018-06-16T23:06:43.172Z,10.43
2018-06-16T23:09:12.315Z,9.43
2018-06-16T23:11:40.902Z,9.73
2018-06-16T23:14:09.223Z,9.68
2018-06-16T23:16:37.842Z,9.35
2018-06-16T23:19:06.247Z,9.38
2018-06-16T23:21:34.622Z,10.18
2018-06-16T23:24:03.007Z,11.63
2018-06-16T23:26:31.344Z,10.88
2018-06-16T23:28:59.679Z,10.08
2018-06-16T23:31:28.044Z,10.98
2018-06-16T23:33:56.382Z,11.60
2018-06-16T23:36:24.728Z,9.98
2018-06-16T23:38:53.050Z,11.78
2018-06-16T23:41:21.396Z,11.97
2018-06-16T23:43:49.702Z,11.95
2018-06-16T23:46:18.015Z,10.75
2018-06-16T23:48:46.301Z,11.30
2018-06-16T23:51:14.595Z,10.03
2018-06-16T23:53:42.890Z,11.12
2018-06-16T23:56:11.367Z,12.33
2018-06-16T23:58:39.766Z,10.75
